Time;durP1;ratioP1;P1;durP2;ratioP2;P2;SDS_P1;SDS_P2;PMS_P1;PMS_P2;Temp;Humidity;BMP_temperature;BMP_pressure;BME280_temperature;BME280_humidity;BME280_pressure;Samples;Min_cycle;Max_cycle;Signal;HPM_P1;HPM_P2
2023/08/18 00:00:13;;;;;;;12.32;10.75;;;;;;;;;;5032251;28;20178;-72
2023/08/18 00:02:39;;;;;;;14.13;10.98;;;;;;;;;;5031583;28;20720;-72
2023/08/18 00:05:06;;;;;;;16.67;12.85;;;;;;;;;;5027842;28;20251;-72
2023/08/18 00:07:31;;;;;;;21.42;14.90;;;;;;;;;;5032514;28;20206;-72
2023/08/18 00:09:57;;;;;;;22.17;16.02;;;;;;;;;;5030954;28;20190;-70
2023/08/18 00:12:22;;;;;;;22.42;15.38;;;;;;;;;;5031320;28;20206;-72
2023/08/18 00:14:47;;;;;;;23.35;18.60;;;;;;;;;;5031121;28;20186;-73
2023/08/18 00:17:13;;;;;;;26.05;18.02;;;;;;;;;;5025053;28;20284;-72
2023/08/18 00:19:38;;;;;;;23.98;19.25;;;;;;;;;;5026455;28;20694;-71
2023/08/18 00:22:04;;;;;;;29.73;19.30;;;;;;;;;;5033036;28;20210;-71
2023/08/18 00:24:29;;;;;;;28.55;20.38;;;;;;;;;;5036188;28;20194;-71
2023/08/18 00:26:54;;;;;;;26.50;19.83;;;;;;;;;;5035662;28;20193;-71
2023/08/18 00:29:20;;;;;;;27.48;20.27;;;;;;;;;;5037408;28;20570;-72
2023/08/18 00:31:45;;;;;;;29.65;21.98;;;;;;;;;;5011718;28;20226;-72
2023/08/18 00:34:11;;;;;;;29.15;20.33;;;;;;;;;;5022127;28;20226;-71
2023/08/18 00:36:36;;;;;;;26.70;19.38;;;;;;;;;;5030834;28;20201;-71
2023/08/18 00:39:02;;;;;;;30.05;21.45;;;;;;;;;;5032158;28;20212;-71
2023/08/18 00:41:28;;;;;;;27.83;19.75;;;;;;;;;;5032023;28;20189;-71
2023/08/18 00:43:54;;;;;;;28.83;19.85;;;;;;;;;;5031187;28;20228;-71
2023/08/18 00:46:20;;;;;;;30.42;19.27;;;;;;;;;;5030821;28;20197;-71
2023/08/18 00:48:47;;;;;;;26.48;19.25;;;;;;;;;;5022020;28;20225;-71
2023/08/18 00:51:13;;;;;;;29.05;20.13;;;;;;;;;;5028051;28;20178;-71
2023/08/18 00:53:40;;;;;;;29.90;19.92;;;;;;;;;;5027172;28;20617;-72
2023/08/18 00:56:07;;;;;;;33.33;19.00;;;;;;;;;;5031652;28;20646;-71
2023/08/18 00:58:34;;;;;;;28.83;18.85;;;;;;;;;;5035080;28;20293;-71
2023/08/18 01:01:00;;;;;;;28.95;19.77;;;;;;;;;;5021957;28;20252;-71
2023/08/18 01:03:26;;;;;;;25.50;17.80;;;;;;;;;;5031420;28;20634;-72
2023/08/18 01:05:51;;;;;;;27.80;18.58;;;;;;;;;;5031589;28;20261;-71
2023/08/18 01:08:17;;;;;;;26.58;17.63;;;;;;;;;;5018790;28;20256;-71
2023/08/18 01:11:05;;;;;;;26.00;17.92;;;;;;;;;;5028375;28;20233;-72
2023/08/18 01:13:57;;;;;;;22.90;16.65;;;;;;;;;;5023077;28;20256;-71
2023/08/18 01:16:27;;;;;;;24.55;17.83;;;;;;;;;;5018773;28;20632;-71
2023/08/18 01:18:53;;;;;;;25.67;17.60;;;;;;;;;;5026761;28;20252;-71
2023/08/18 01:21:24;;;;;;;22.60;17.02;;;;;;;;;;5023638;28;20186;-71
2023/08/18 01:23:49;;;;;;;20.40;15.52;;;;;;;;;;5024707;28;20455;-73
2023/08/18 01:26:15;;;;;;;26.80;16.92;;;;;;;;;;5029784;28;20522;-72
2023/08/18 01:28:43;;;;;;;25.83;17.40;;;;;;;;;;5020485;28;20924;-72
2023/08/18 01:31:14;;;;;;;24.55;16.65;;;;;;;;;;5037293;28;20243;-72
2023/08/18 01:33:46;;;;;;;25.08;17.23;;;;;;;;;;5029960;28;20739;-72
2023/08/18 01:36:15;;;;;;;25.85;17.20;;;;;;;;;;5031427;28;20193;-72
2023/08/18 01:38:44;;;;;;;25.58;15.98;;;;;;;;;;5018255;28;20606;-72
2023/08/18 01:41:12;;;;;;;25.55;17.50;;;;;;;;;;5031819;28;20190;-72
2023/08/18 01:43:38;;;;;;;22.77;16.38;;;;;;;;;;5028883;28;20217;-72
2023/08/18 01:46:03;;;;;;;25.30;16.52;;;;;;;;;;5018070;28;20185;-72
2023/08/18 01:48:29;;;;;;;25.85;17.52;;;;;;;;;;5025662;28;20204;-72
2023/08/18 01:50:54;;;;;;;24.10;15.82;;;;;;;;;;5029202;28;20556;-72
2023/08/18 01:53:19;;;;;;;20.88;15.50;;;;;;;;;;5030935;28;20665;-71
2023/08/18 01:55:45;;;;;;;23.95;15.43;;;;;;;;;;5028097;28;20286;-71
2023/08/18 01:58:10;;;;;;;22.45;14.95;;;;;;;;;;5023112;28;20292;-71
2023/08/18 02:00:36;;;;;;;23.30;15.38;;;;;;;;;;5030704;28;20186;-72
2023/08/18 02:03:01;;;;;;;23.70;15.40;;;;;;;;;;5028936;28;20186;-71
2023/08/18 02:05:27;;;;;;;21.70;14.50;;;;;;;;;;5030549;28;20197;-71
2023/08/18 02:07:52;;;;;;;23.67;15.75;;;;;;;;;;5021300;28;20205;-71
2023/08/18 02:10:18;;;;;;;22.52;15.30;;;;;;;;;;5031588;28;20240;-71
2023/08/18 02:12:43;;;;;;;20.52;13.82;;;;;;;;;;5024867;28;20206;-71
2023/08/18 02:15:09;;;;;;;23.67;14.30;;;;;;;;;;5026370;28;20270;-71
2023/08/18 02:17:34;;;;;;;19.70;14.23;;;;;;;;;;5030271;28;20217;-71
2023/08/18 02:20:00;;;;;;;19.25;13.98;;;;;;;;;;5027725;28;20190;-71
2023/08/18 02:22:26;;;;;;;19.98;14.30;;;;;;;;;;5029424;28;20213;-71
2023/08/18 02:24:52;;;;;;;22.40;13.60;;;;;;;;;;5029365;28;20610;-71
2023/08/18 02:27:17;;;;;;;18.30;13.18;;;;;;;;;;5029142;28;20265;-71
2023/08/18 02:29:43;;;;;;;21.35;12.68;;;;;;;;;;5023422;28;20221;-71
2023/08/18 02:32:08;;;;;;;21.38;12.73;;;;;;;;;;5031178;28;20611;-71
2023/08/18 02:34:33;;;;;;;18.35;12.45;;;;;;;;;;5025576;28;20280;-71
2023/08/18 02:36:59;;;;;;;18.40;12.48;;;;;;;;;;5026812;28;20193;-71
2023/08/18 02:39:24;;;;;;;18.70;11.88;;;;;;;;;;5011673;28;20586;-71
2023/08/18 02:41:51;;;;;;;20.15;12.20;;;;;;;;;;5034025;28;20276;-72
2023/08/18 02:44:17;;;;;;;18.48;12.77;;;;;;;;;;5014137;28;20650;-72
2023/08/18 02:46:42;;;;;;;20.70;12.55;;;;;;;;;;5029936;28;20221;-71
2023/08/18 02:49:08;;;;;;;19.95;12.40;;;;;;;;;;5029806;28;20282;-71
2023/08/18 02:51:33;;;;;;;21.23;12.20;;;;;;;;;;5029794;28;20661;-71
2023/08/18 02:53:59;;;;;;;20.95;12.13;;;;;;;;;;5027680;28;20238;-72
2023/08/18 02:56:25;;;;;;;14.75;10.77;;;;;;;;;;5028534;28;20280;-71
2023/08/18 02:58:50;;;;;;;20.33;13.05;;;;;;;;;;5023140;28;20281;-71
2023/08/18 03:01:16;;;;;;;17.90;12.90;;;;;;;;;;5030450;28;20324;-71
2023/08/18 03:03:41;;;;;;;19.60;13.27;;;;;;;;;;5019236;28;20195;-71
2023/08/18 03:06:08;;;;;;;17.75;12.35;;;;;;;;;;5030637;28;20229;-71
2023/08/18 03:08:34;;;;;;;21.15;13.25;;;;;;;;;;5008485;28;20248;-72
2023/08/18 03:11:00;;;;;;;17.15;12.27;;;;;;;;;;5025044;28;20554;-71
2023/08/18 03:13:27;;;;;;;20.40;12.63;;;;;;;;;;5012166;28;20225;-71
2023/08/18 03:15:52;;;;;;;19.70;12.70;;;;;;;;;;5027118;28;20277;-71
2023/08/18 03:18:18;;;;;;;20.58;12.90;;;;;;;;;;5022102;28;20666;-71
2023/08/18 03:20:46;;;;;;;15.75;12.32;;;;;;;;;;5023084;28;20204;-71
2023/08/18 03:23:14;;;;;;;18.02;12.45;;;;;;;;;;5006647;28;20178;-71
2023/08/18 03:25:39;;;;;;;20.58;13.30;;;;;;;;;;5029241;28;20373;-71
2023/08/18 03:28:05;;;;;;;19.33;12.95;;;;;;;;;;5024777;28;20258;-70
2023/08/18 03:30:30;;;;;;;19.73;12.68;;;;;;;;;;5032383;28;20209;-71
2023/08/18 03:32:57;;;;;;;19.08;13.80;;;;;;;;;;5030741;28;20229;-71
2023/08/18 03:35:22;;;;;;;19.60;13.68;;;;;;;;;;5024664;28;20543;-71
2023/08/18 03:37:48;;;;;;;17.88;12.73;;;;;;;;;;5034233;28;20232;-70
2023/08/18 03:40:13;;;;;;;19.02;13.27;;;;;;;;;;5027820;28;20186;-71
2023/08/18 03:42:39;;;;;;;20.65;13.80;;;;;;;;;;5031571;28;20196;-71
2023/08/18 03:45:05;;;;;;;17.48;13.45;;;;;;;;;;5032449;28;20229;-70
2023/08/18 03:47:30;;;;;;;17.30;13.35;;;;;;;;;;5031635;28;20190;-70
2023/08/18 03:49:56;;;;;;;19.20;13.98;;;;;;;;;;5029106;28;20549;-71
2023/08/18 03:52:21;;;;;;;24.70;14.25;;;;;;;;;;5033711;28;20205;-71
2023/08/18 03:54:46;;;;;;;17.80;13.85;;;;;;;;;;5032240;28;20255;-71
2023/08/18 03:57:12;;;;;;;23.08;13.32;;;;;;;;;;5025882;28;20199;-71
2023/08/18 03:59:37;;;;;;;20.05;12.68;;;;;;;;;;5029333;28;20217;-71
2023/08/18 04:02:03;;;;;;;21.27;12.90;;;;;;;;;;5030118;28;20186;-71
2023/08/18 04:04:28;;;;;;;19.77;13.75;;;;;;;;;;5028396;28;20567;-71
2023/08/18 04:06:53;;;;;;;20.90;14.15;;;;;;;;;;5032134;28;20208;-71
2023/08/18 04:09:19;;;;;;;18.50;13.40;;;;;;;;;;5027285;28;20194;-71
2023/08/18 04:11:45;;;;;;;18.00;12.25;;;;;;;;;;5031662;28;20288;-71
2023/08/18 04:14:11;;;;;;;19.67;14.07;;;;;;;;;;5031565;28;20221;-71
2023/08/18 04:16:36;;;;;;;18.70;14.02;;;;;;;;;;5031546;28;20190;-71
2023/08/18 04:19:03;;;;;;;21.33;13.98;;;;;;;;;;5029918;28;20193;-71
2023/08/18 04:21:29;;;;;;;24.25;14.45;;;;;;;;;;5032808;28;20182;-71
2023/08/18 04:23:54;;;;;;;25.10;14.35;;;;;;;;;;5024741;28;20237;-71
2023/08/18 04:26:20;;;;;;;21.70;14.50;;;;;;;;;;5031911;28;20305;-70
2023/08/18 04:28:46;;;;;;;21.92;14.55;;;;;;;;;;5031688;28;20214;-71
2023/08/18 04:31:12;;;;;;;23.60;14.95;;;;;;;;;;5038197;28;20186;-71
2023/08/18 04:33:38;;;;;;;22.30;14.85;;;;;;;;;;5033321;28;20522;-71
2023/08/18 04:36:03;;;;;;;23.90;14.20;;;;;;;;;;5022429;28;20198;-72
2023/08/18 04:38:29;;;;;;;21.85;15.35;;;;;;;;;;5013635;28;20201;-72
2023/08/18 04:41:02;;;;;;;21.27;14.32;;;;;;;;;;5023441;28;20182;-71
2023/08/18 04:43:30;;;;;;;22.23;14.77;;;;;;;;;;5031042;28;20225;-71
2023/08/18 04:45:56;;;;;;;25.33;15.45;;;;;;;;;;5027912;28;20178;-72
2023/08/18 04:48:22;;;;;;;21.50;15.35;;;;;;;;;;5029124;28;20559;-71
2023/08/18 04:50:48;;;;;;;24.92;16.15;;;;;;;;;;5022066;28;20239;-71
2023/08/18 04:53:14;;;;;;;23.98;14.98;;;;;;;;;;5029864;28;20570;-71
2023/08/18 04:55:40;;;;;;;21.70;15.05;;;;;;;;;;5020604;28;20193;-71
2023/08/18 04:58:09;;;;;;;23.40;14.45;;;;;;;;;;5032351;28;20202;-71
2023/08/18 05:00:34;;;;;;;23.65;15.45;;;;;;;;;;5029599;28;20221;-72
2023/08/18 05:03:00;;;;;;;25.40;15.43;;;;;;;;;;5030725;28;20301;-71
2023/08/18 05:05:25;;;;;;;20.48;16.08;;;;;;;;;;5032155;28;20606;-72
2023/08/18 05:07:50;;;;;;;21.40;15.25;;;;;;;;;;5033153;28;20197;-71
2023/08/18 05:10:16;;;;;;;24.75;15.73;;;;;;;;;;5015393;28;20256;-71
2023/08/18 05:12:41;;;;;;;23.55;16.15;;;;;;;;;;5032229;28;20495;-71
2023/08/18 05:15:07;;;;;;;24.75;15.98;;;;;;;;;;5027787;28;20259;-71
2023/08/18 05:17:33;;;;;;;27.48;16.13;;;;;;;;;;5021109;28;20206;-71
2023/08/18 05:19:59;;;;;;;26.55;16.63;;;;;;;;;;5033319;28;20201;-71
2023/08/18 05:22:24;;;;;;;24.05;16.63;;;;;;;;;;5031535;28;20527;-72
2023/08/18 05:24:49;;;;;;;25.92;16.25;;;;;;;;;;5018771;28;20205;-71
2023/08/18 05:27:16;;;;;;;27.02;15.35;;;;;;;;;;5011596;28;20183;-71
2023/08/18 05:29:41;;;;;;;23.20;16.63;;;;;;;;;;5003704;28;20416;-71
2023/08/18 05:32:07;;;;;;;21.52;15.50;;;;;;;;;;5028716;28;20174;-71
2023/08/18 05:34:32;;;;;;;29.65;16.70;;;;;;;;;;5031053;28;20249;-71
2023/08/18 05:36:58;;;;;;;25.67;16.30;;;;;;;;;;5029744;28;20236;-71
2023/08/18 05:39:23;;;;;;;23.48;16.00;;;;;;;;;;5031173;28;20194;-71
2023/08/18 05:41:49;;;;;;;21.08;14.93;;;;;;;;;;5029740;28;20263;-72
2023/08/18 05:44:14;;;;;;;20.65;14.82;;;;;;;;;;5025133;28;20234;-72
2023/08/18 05:46:40;;;;;;;22.58;16.25;;;;;;;;;;5029557;28;20254;-72
2023/08/18 05:49:07;;;;;;;21.23;14.75;;;;;;;;;;5025325;28;20847;-71
2023/08/18 05:51:32;;;;;;;20.70;15.65;;;;;;;;;;5025663;28;20257;-71
2023/08/18 05:53:58;;;;;;;27.15;15.73;;;;;;;;;;5030321;28;20320;-72
2023/08/18 05:56:23;;;;;;;24.08;15.13;;;;;;;;;;5029266;28;20241;-72
2023/08/18 05:58:49;;;;;;;22.92;15.23;;;;;;;;;;5027656;28;20196;-72
2023/08/18 06:01:17;;;;;;;22.58;16.10;;;;;;;;;;5021920;28;20198;-72
2023/08/18 06:03:43;;;;;;;20.85;14.35;;;;;;;;;;5029753;28;20182;-72
2023/08/18 06:06:08;;;;;;;21.33;14.65;;;;;;;;;;5031443;28;20352;-72
2023/08/18 06:08:34;;;;;;;23.65;14.95;;;;;;;;;;5029852;28;20680;-72
2023/08/18 06:10:59;;;;;;;27.17;16.65;;;;;;;;;;5019212;28;20595;-72
2023/08/18 06:13:25;;;;;;;20.55;14.57;;;;;;;;;;5030331;28;20213;-72
2023/08/18 06:15:52;;;;;;;20.58;15.65;;;;;;;;;;5021878;28;20199;-72
2023/08/18 06:18:18;;;;;;;25.42;15.98;;;;;;;;;;5022279;28;20228;-72
2023/08/18 06:20:45;;;;;;;23.00;15.00;;;;;;;;;;5024709;28;20195;-71
2023/08/18 06:23:10;;;;;;;22.70;15.48;;;;;;;;;;5020979;28;20194;-71
2023/08/18 06:25:35;;;;;;;23.48;16.27;;;;;;;;;;5012850;28;20296;-72
2023/08/18 06:28:01;;;;;;;21.80;15.65;;;;;;;;;;5026417;28;20191;-70
2023/08/18 06:30:26;;;;;;;27.75;15.07;;;;;;;;;;5026735;28;20211;-72
2023/08/18 06:32:52;;;;;;;19.85;14.77;;;;;;;;;;5024945;28;20206;-71
2023/08/18 06:35:17;;;;;;;22.55;14.02;;;;;;;;;;5023274;28;20628;-71
2023/08/18 06:37:43;;;;;;;20.25;13.57;;;;;;;;;;5022262;28;20677;-71
2023/08/18 06:40:09;;;;;;;22.05;13.55;;;;;;;;;;5024430;28;20201;-71
2023/08/18 06:42:35;;;;;;;18.05;13.05;;;;;;;;;;5027701;28;20212;-71
2023/08/18 06:45:00;;;;;;;20.58;13.43;;;;;;;;;;5029785;28;20183;-71
2023/08/18 06:47:25;;;;;;;21.27;13.38;;;;;;;;;;5030579;28;20231;-71
2023/08/18 06:49:51;;;;;;;19.50;12.88;;;;;;;;;;5032042;28;20228;-71
2023/08/18 06:52:16;;;;;;;21.38;12.88;;;;;;;;;;5031201;28;20190;-71
2023/08/18 06:54:42;;;;;;;18.48;11.38;;;;;;;;;;5030224;28;20382;-72
2023/08/18 06:57:07;;;;;;;20.85;12.43;;;;;;;;;;5028680;28;20718;-71
2023/08/18 06:59:32;;;;;;;18.08;11.35;;;;;;;;;;5030546;28;20190;-71
2023/08/18 07:01:58;;;;;;;16.15;11.02;;;;;;;;;;5029288;28;20189;-71
2023/08/18 07:04:23;;;;;;;14.48;11.10;;;;;;;;;;5027820;28;20185;-71
2023/08/18 07:06:49;;;;;;;16.02;11.20;;;;;;;;;;5029026;28;20340;-72
2023/08/18 07:09:14;;;;;;;16.90;11.82;;;;;;;;;;5034110;28;20201;-72
2023/08/18 07:11:39;;;;;;;16.20;11.05;;;;;;;;;;5034069;28;20189;-71
2023/08/18 07:14:05;;;;;;;13.20;10.57;;;;;;;;;;5031263;28;20255;-71
2023/08/18 07:16:30;;;;;;;16.65;11.07;;;;;;;;;;5026653;28;20273;-72
2023/08/18 07:18:56;;;;;;;14.85;11.48;;;;;;;;;;5032236;28;20182;-72
2023/08/18 07:21:21;;;;;;;15.82;12.10;;;;;;;;;;5028630;28;20674;-73
2023/08/18 07:23:46;;;;;;;16.80;12.32;;;;;;;;;;5023134;28;20670;-72
2023/08/18 07:26:12;;;;;;;17.33;12.85;;;;;;;;;;5024291;28;20549;-72
2023/08/18 07:28:37;;;;;;;18.60;13.25;;;;;;;;;;5033106;28;20256;-72
2023/08/18 07:31:03;;;;;;;15.32;12.75;;;;;;;;;;5034733;28;20285;-72
2023/08/18 07:33:30;;;;;;;17.08;11.50;;;;;;;;;;5028067;28;20678;-72
2023/08/18 07:35:56;;;;;;;15.02;10.43;;;;;;;;;;5030229;28;20269;-72
2023/08/18 07:38:22;;;;;;;13.07;9.15;;;;;;;;;;5033236;28;20225;-72
2023/08/18 07:40:47;;;;;;;12.98;9.02;;;;;;;;;;5020065;28;20209;-72
2023/08/18 07:43:13;;;;;;;11.70;7.90;;;;;;;;;;5030125;28;20232;-73
2023/08/18 07:45:38;;;;;;;8.23;6.85;;;;;;;;;;5030855;28;20537;-72
2023/08/18 07:48:04;;;;;;;9.20;7.07;;;;;;;;;;5017565;28;20191;-72
2023/08/18 07:50:30;;;;;;;10.80;7.50;;;;;;;;;;5028378;28;20190;-72
2023/08/18 07:52:55;;;;;;;10.45;8.05;;;;;;;;;;5032018;28;20198;-72
2023/08/18 07:55:22;;;;;;;9.80;7.95;;;;;;;;;;5028753;28;20190;-72
2023/08/18 07:57:48;;;;;;;12.15;8.23;;;;;;;;;;5003568;28;20205;-72
2023/08/18 08:00:17;;;;;;;11.05;8.05;;;;;;;;;;5013336;28;20185;-72
2023/08/18 08:02:47;;;;;;;9.25;7.63;;;;;;;;;;5033474;28;20178;-72
2023/08/18 08:05:13;;;;;;;10.75;7.55;;;;;;;;;;5027270;28;20650;-72
2023/08/18 08:07:40;;;;;;;9.55;7.40;;;;;;;;;;5034151;28;20844;-72
2023/08/18 08:10:06;;;;;;;8.95;7.20;;;;;;;;;;5031980;28;20260;-72
2023/08/18 08:12:34;;;;;;;9.88;7.40;;;;;;;;;;5031615;28;20309;-71
2023/08/18 08:15:00;;;;;;;10.55;7.40;;;;;;;;;;5031547;28;20669;-72
2023/08/18 08:17:26;;;;;;;10.43;7.47;;;;;;;;;;5033808;28;20297;-72
2023/08/18 08:19:52;;;;;;;12.20;8.90;;;;;;;;;;5030719;28;20640;-70
2023/08/18 08:22:17;;;;;;;12.48;8.50;;;;;;;;;;5029104;28;20264;-71
2023/08/18 08:24:43;;;;;;;11.23;8.00;;;;;;;;;;5031844;28;20550;-71
2023/08/18 08:27:08;;;;;;;9.85;7.65;;;;;;;;;;5008275;28;20328;-71
2023/08/18 08:29:34;;;;;;;11.50;7.93;;;;;;;;;;5023459;28;20665;-71
2023/08/18 08:31:59;;;;;;;11.77;8.13;;;;;;;;;;5038161;28;20186;-71
2023/08/18 08:34:26;;;;;;;11.40;8.80;;;;;;;;;;5031134;28;20217;-71
2023/08/18 08:36:51;;;;;;;11.32;8.70;;;;;;;;;;5032586;28;20520;-70
2023/08/18 08:39:17;;;;;;;11.23;7.90;;;;;;;;;;5032468;28;20197;-71
2023/08/18 08:41:42;;;;;;;12.27;8.70;;;;;;;;;;5017800;28;20186;-71
2023/08/18 08:44:08;;;;;;;10.27;7.70;;;;;;;;;;5032142;28;20305;-72
2023/08/18 08:46:36;;;;;;;10.57;7.32;;;;;;;;;;5031924;28;20209;-71
2023/08/18 08:49:04;;;;;;;12.20;8.52;;;;;;;;;;5031734;28;20186;-70
2023/08/18 08:51:34;;;;;;;10.23;8.02;;;;;;;;;;5018989;28;20194;-71
2023/08/18 08:54:01;;;;;;;13.55;9.05;;;;;;;;;;5031732;28;20520;-71
2023/08/18 08:56:31;;;;;;;12.80;9.38;;;;;;;;;;5023376;28;20201;-71
2023/08/18 08:58:57;;;;;;;10.65;8.65;;;;;;;;;;5032947;28;20201;-71
2023/08/18 09:01:26;;;;;;;11.70;8.63;;;;;;;;;;5032662;28;20194;-71
2023/08/18 09:03:51;;;;;;;11.63;9.02;;;;;;;;;;5031278;28;20189;-71
2023/08/18 09:06:17;;;;;;;12.73;9.63;;;;;;;;;;5018867;28;20543;-71
2023/08/18 09:08:42;;;;;;;11.70;9.68;;;;;;;;;;5016194;28;20186;-71
2023/08/18 09:11:08;;;;;;;14.30;10.32;;;;;;;;;;5032029;28;20194;-71
2023/08/18 09:13:34;;;;;;;13.05;9.20;;;;;;;;;;5019375;28;20222;-72
2023/08/18 09:16:06;;;;;;;12.68;9.75;;;;;;;;;;5028533;28;20665;-72
2023/08/18 09:18:32;;;;;;;15.40;9.70;;;;;;;;;;5026592;28;20210;-72
2023/08/18 09:21:00;;;;;;;13.23;10.20;;;;;;;;;;5027550;28;20198;-71
2023/08/18 09:23:27;;;;;;;15.60;11.18;;;;;;;;;;5030773;28;20281;-71
2023/08/18 09:25:55;;;;;;;15.73;11.98;;;;;;;;;;5032639;28;20217;-72
2023/08/18 09:28:21;;;;;;;17.05;11.48;;;;;;;;;;5031019;28;20278;-71
2023/08/18 09:30:46;;;;;;;15.48;11.13;;;;;;;;;;5027298;28;20616;-71
2023/08/18 09:33:12;;;;;;;16.77;11.65;;;;;;;;;;5032116;28;20262;-70
2023/08/18 09:35:37;;;;;;;17.02;12.23;;;;;;;;;;5030812;28;20208;-71
2023/08/18 09:38:03;;;;;;;14.10;11.80;;;;;;;;;;5031387;28;20243;-71
2023/08/18 09:40:29;;;;;;;19.42;12.65;;;;;;;;;;5026709;28;20207;-71
2023/08/18 09:42:55;;;;;;;16.95;12.23;;;;;;;;;;5023327;28;20221;-71
2023/08/18 09:45:23;;;;;;;16.05;12.55;;;;;;;;;;5031397;28;20235;-71
2023/08/18 09:47:53;;;;;;;15.80;12.32;;;;;;;;;;5030050;28;20680;-71
2023/08/18 09:50:23;;;;;;;16.40;12.02;;;;;;;;;;5027468;28;20213;-73
2023/08/18 09:52:57;;;;;;;16.10;12.23;;;;;;;;;;5021987;28;20692;-72
2023/08/18 09:55:33;;;;;;;16.75;12.30;;;;;;;;;;5026393;28;20637;-71
2023/08/18 09:58:19;;;;;;;16.35;12.45;;;;;;;;;;5023929;28;20198;-72
2023/08/18 10:00:46;;;;;;;16.30;12.18;;;;;;;;;;5016671;28;20394;-72
2023/08/18 10:03:17;;;;;;;16.70;11.80;;;;;;;;;;5029064;28;20232;-72
2023/08/18 10:05:46;;;;;;;16.85;12.77;;;;;;;;;;5011766;28;20550;-72
2023/08/18 10:08:12;;;;;;;17.38;12.85;;;;;;;;;;5024087;28;20379;-71
2023/08/18 10:10:38;;;;;;;19.33;13.20;;;;;;;;;;5032785;28;20190;-72
2023/08/18 10:13:07;;;;;;;16.27;12.90;;;;;;;;;;5009783;28;20202;-70
2023/08/18 10:15:33;;;;;;;16.20;13.48;;;;;;;;;;5028826;28;20249;-70
2023/08/18 10:17:58;;;;;;;17.83;13.88;;;;;;;;;;5031441;28;20209;-72
2023/08/18 10:20:27;;;;;;;17.60;13.27;;;;;;;;;;5030281;28;20599;-70
2023/08/18 10:22:54;;;;;;;17.23;13.25;;;;;;;;;;5020027;28;20218;-70
2023/08/18 10:25:24;;;;;;;19.63;13.77;;;;;;;;;;5031437;28;20226;-71
2023/08/18 10:27:50;;;;;;;16.15;13.60;;;;;;;;;;5025904;28;20194;-71
2023/08/18 10:30:27;;;;;;;18.05;13.50;;;;;;;;;;5033059;28;20234;-71
2023/08/18 10:33:00;;;;;;;16.10;13.10;;;;;;;;;;5018140;28;20581;-70
2023/08/18 10:35:27;;;;;;;17.73;12.82;;;;;;;;;;5007995;28;20178;-71
2023/08/18 10:37:58;;;;;;;16.00;12.60;;;;;;;;;;5016281;28;20191;-71
2023/08/18 10:40:31;;;;;;;16.63;14.43;;;;;;;;;;5033314;28;20320;-71
2023/08/18 10:43:16;;;;;;;16.38;13.38;;;;;;;;;;5027381;28;20233;-70
2023/08/18 10:45:42;;;;;;;16.55;12.95;;;;;;;;;;5014732;28;20537;-72
2023/08/18 10:48:09;;;;;;;16.70;13.68;;;;;;;;;;5030558;28;20197;-70
2023/08/18 10:50:36;;;;;;;15.68;13.20;;;;;;;;;;5031388;28;20629;-71
2023/08/18 10:53:04;;;;;;;14.50;12.50;;;;;;;;;;5029031;28;20214;-70
2023/08/18 10:55:30;;;;;;;15.98;13.75;;;;;;;;;;5017117;28;20186;-72
2023/08/18 10:57:56;;;;;;;17.15;13.38;;;;;;;;;;5031360;28;20688;-71
2023/08/18 11:00:22;;;;;;;15.93;13.48;;;;;;;;;;5028012;28;20197;-71
2023/08/18 11:02:49;;;;;;;15.20;12.95;;;;;;;;;;5031359;28;20245;-71
2023/08/18 11:05:21;;;;;;;14.15;12.45;;;;;;;;;;5014855;28;20397;-71
2023/08/18 11:07:47;;;;;;;16.75;13.63;;;;;;;;;;5038287;28;20225;-71
2023/08/18 11:10:21;;;;;;;15.25;12.75;;;;;;;;;;5019511;28;20243;-71
2023/08/18 11:12:47;;;;;;;16.10;14.35;;;;;;;;;;5029910;28;20218;-71
2023/08/18 11:15:14;;;;;;;15.63;13.38;;;;;;;;;;5018020;28;20183;-71
2023/08/18 11:17:41;;;;;;;13.90;12.00;;;;;;;;;;5019064;28;20306;-70
2023/08/18 11:20:16;;;;;;;15.70;12.65;;;;;;;;;;5030213;28;20731;-71
2023/08/18 11:22:44;;;;;;;14.30;12.60;;;;;;;;;;5017067;28;20744;-70
2023/08/18 11:25:14;;;;;;;15.95;13.85;;;;;;;;;;5030515;28;20190;-71
2023/08/18 11:27:41;;;;;;;14.50;12.70;;;;;;;;;;5029919;28;20190;-71
2023/08/18 11:30:09;;;;;;;14.77;13.20;;;;;;;;;;5033697;28;20189;-71
2023/08/18 11:32:35;;;;;;;14.25;12.85;;;;;;;;;;5032777;28;20220;-71
2023/08/18 11:35:00;;;;;;;14.68;13.15;;;;;;;;;;5032263;28;20547;-71
2023/08/18 11:37:28;;;;;;;13.65;12.00;;;;;;;;;;5028965;28;20233;-71
2023/08/18 11:39:53;;;;;;;14.38;11.80;;;;;;;;;;5028980;28;20210;-71
2023/08/18 11:42:20;;;;;;;15.48;13.30;;;;;;;;;;5028909;28;20186;-71
2023/08/18 11:44:49;;;;;;;13.70;12.18;;;;;;;;;;5030167;28;20686;-71
2023/08/18 11:47:20;;;;;;;15.55;13.50;;;;;;;;;;5029599;28;20190;-71
2023/08/18 11:49:46;;;;;;;15.85;13.18;;;;;;;;;;5029574;28;20197;-72
2023/08/18 11:52:13;;;;;;;15.20;13.70;;;;;;;;;;5029443;28;20201;-71
2023/08/18 11:54:38;;;;;;;15.07;13.60;;;;;;;;;;5033373;28;20244;-71
2023/08/18 11:57:05;;;;;;;14.40;12.90;;;;;;;;;;5032673;28;20186;-72
2023/08/18 11:59:31;;;;;;;13.52;12.23;;;;;;;;;;5028697;28;20672;-71
2023/08/18 12:02:04;;;;;;;16.88;12.45;;;;;;;;;;5029317;28;20194;-70
2023/08/18 12:04:31;;;;;;;13.95;12.45;;;;;;;;;;5032284;28;20182;-71
2023/08/18 12:06:57;;;;;;;14.20;12.75;;;;;;;;;;5020170;28;20205;-71
2023/08/18 12:09:23;;;;;;;16.63;14.07;;;;;;;;;;5034410;28;20340;-71
2023/08/18 12:11:49;;;;;;;15.23;13.63;;;;;;;;;;5014239;28;20281;-71
2023/08/18 12:14:16;;;;;;;16.52;13.95;;;;;;;;;;5034562;28;20613;-71
2023/08/18 12:16:42;;;;;;;14.32;12.77;;;;;;;;;;5010422;28;20264;-72
2023/08/18 12:19:08;;;;;;;14.90;12.82;;;;;;;;;;5030970;28;20236;-72
2023/08/18 12:21:36;;;;;;;15.52;13.93;;;;;;;;;;5032927;28;20656;-71
2023/08/18 12:24:06;;;;;;;14.75;13.25;;;;;;;;;;5032657;28;20178;-71
2023/08/18 12:26:32;;;;;;;16.02;14.43;;;;;;;;;;5030577;28;20199;-72
2023/08/18 12:28:57;;;;;;;16.98;15.25;;;;;;;;;;5017230;28;20183;-72
2023/08/18 12:31:24;;;;;;;17.63;15.82;;;;;;;;;;5038569;28;20248;-72
2023/08/18 12:33:55;;;;;;;16.75;14.98;;;;;;;;;;5031387;28;20689;-71
2023/08/18 12:36:21;;;;;;;17.58;15.10;;;;;;;;;;5030155;28;20285;-72
2023/08/18 12:38:46;;;;;;;18.35;16.50;;;;;;;;;;5014607;28;20310;-71
2023/08/18 12:41:15;;;;;;;17.98;16.00;;;;;;;;;;5031219;28;20318;-71
2023/08/18 12:43:43;;;;;;;17.25;15.27;;;;;;;;;;5019113;28;20233;-72
2023/08/18 12:46:10;;;;;;;18.92;14.73;;;;;;;;;;5033285;28;20217;-72
2023/08/18 12:48:35;;;;;;;14.77;13.35;;;;;;;;;;5032569;28;20269;-71
2023/08/18 12:51:02;;;;;;;19.23;17.23;;;;;;;;;;5032626;28;20225;-71
2023/08/18 12:53:27;;;;;;;18.20;15.48;;;;;;;;;;5029886;28;20251;-72
2023/08/18 12:55:52;;;;;;;19.35;16.35;;;;;;;;;;5031500;28;20185;-70
2023/08/18 12:58:18;;;;;;;16.33;14.10;;;;;;;;;;5031805;28;20657;-71
2023/08/18 13:00:43;;;;;;;17.45;14.25;;;;;;;;;;5034609;28;20228;-72
2023/08/18 13:03:08;;;;;;;14.07;12.52;;;;;;;;;;5031720;28;20190;-71
2023/08/18 13:05:34;;;;;;;20.48;16.58;;;;;;;;;;5020609;28;20883;-72
2023/08/18 13:07:59;;;;;;;19.77;16.42;;;;;;;;;;5030753;28;20705;-72
2023/08/18 13:10:25;;;;;;;17.67;15.68;;;;;;;;;;5033592;28;20198;-70
2023/08/18 13:12:50;;;;;;;20.35;16.85;;;;;;;;;;5032157;28;20182;-71
2023/08/18 13:15:16;;;;;;;20.10;14.75;;;;;;;;;;5031155;28;20194;-71
2023/08/18 13:17:41;;;;;;;17.92;16.02;;;;;;;;;;5033901;28;20216;-71
2023/08/18 13:20:07;;;;;;;16.63;14.82;;;;;;;;;;5014936;28;20662;-71
2023/08/18 13:22:35;;;;;;;17.88;15.90;;;;;;;;;;5030205;28;20194;-71
2023/08/18 13:25:09;;;;;;;21.33;18.50;;;;;;;;;;5019727;28;20198;-71
2023/08/18 13:27:35;;;;;;;20.23;18.00;;;;;;;;;;5025306;28;20671;-72
2023/08/18 13:30:00;;;;;;;20.40;17.77;;;;;;;;;;5016028;28;20228;-71
2023/08/18 13:32:25;;;;;;;21.20;17.05;;;;;;;;;;5032371;28;20491;-71
2023/08/18 13:34:51;;;;;;;17.40;15.60;;;;;;;;;;5026253;28;20292;-72
2023/08/18 13:37:16;;;;;;;21.63;17.48;;;;;;;;;;5003856;28;20194;-72
2023/08/18 13:39:42;;;;;;;18.15;16.23;;;;;;;;;;5019469;28;20201;-72
2023/08/18 13:42:07;;;;;;;19.15;17.17;;;;;;;;;;5030495;28;20277;-72
2023/08/18 13:44:32;;;;;;;20.77;16.98;;;;;;;;;;5031200;28;20325;-71
2023/08/18 13:46:58;;;;;;;17.75;15.85;;;;;;;;;;5031179;28;20229;-71
2023/08/18 13:49:26;;;;;;;17.92;15.30;;;;;;;;;;5030581;28;20531;-72
2023/08/18 13:51:51;;;;;;;16.50;14.35;;;;;;;;;;5030865;28;20191;-72
2023/08/18 13:54:17;;;;;;;19.15;15.13;;;;;;;;;;5029253;28;20738;-71
2023/08/18 13:56:42;;;;;;;23.00;17.80;;;;;;;;;;5029291;28;20209;-72
2023/08/18 13:59:08;;;;;;;18.85;16.90;;;;;;;;;;5019987;28;20186;-73
2023/08/18 14:01:34;;;;;;;19.13;17.23;;;;;;;;;;5030021;28;20638;-72
2023/08/18 14:04:00;;;;;;;18.27;15.75;;;;;;;;;;5031548;28;20209;-70
2023/08/18 14:06:25;;;;;;;16.25;14.48;;;;;;;;;;5030629;28;20193;-71
2023/08/18 14:08:50;;;;;;;16.02;14.27;;;;;;;;;;5027875;28;20631;-71
2023/08/18 14:11:16;;;;;;;19.25;15.07;;;;;;;;;;5012652;28;20273;-72
2023/08/18 14:13:42;;;;;;;15.40;12.77;;;;;;;;;;5030086;28;20206;-71